createdAt,value
2023-05-25T00:01:49.818Z,98500.94
2023-05-25T00:04:19.737Z,98492.34
2023-05-25T00:06:47.848Z,98494.16
2023-05-25T00:09:15.602Z,98494.38
2023-05-25T00:11:43.307Z,98493.75
2023-05-25T00:14:10.997Z,98498.22
2023-05-25T00:16:40.821Z,98496.81
2023-05-25T00:19:10.938Z,98499.69
2023-05-25T00:21:38.613Z,98499.25
2023-05-25T00:24:06.602Z,98503.75
2023-05-25T00:26:37.213Z,98497.00
2023-05-25T00:29:04.911Z,98496.19
2023-05-25T00:31:33.636Z,98499.81
2023-05-25T00:34:01.732Z,98495.53
2023-05-25T00:36:29.275Z,98495.28
2023-05-25T00:38:56.889Z,98489.16
2023-05-25T00:41:27.338Z,98486.09
2023-05-25T00:43:57.016Z,98486.09
2023-05-25T00:46:25.683Z,98475.84
2023-05-25T00:48:55.255Z,98483.81
2023-05-25T00:51:22.982Z,98480.34
2023-05-25T00:53:50.602Z,98477.44
2023-05-25T00:56:29.295Z,98471.06
2023-05-25T00:59:00.980Z,98480.22
2023-05-25T01:01:33.722Z,98474.91
2023-05-25T01:04:03.561Z,98482.88
2023-05-25T01:06:34.255Z,98494.13
2023-05-25T01:09:04.476Z,98482.69
2023-05-25T01:11:35.215Z,98479.16
2023-05-25T01:14:03.421Z,98481.59
2023-05-25T01:16:31.962Z,98491.00
2023-05-25T01:19:02.645Z,98490.34
2023-05-25T01:21:46.155Z,98481.75
2023-05-25T01:24:22.842Z,98488.72
2023-05-25T01:26:58.108Z,98487.50
2023-05-25T01:29:28.421Z,98487.31
2023-05-25T01:31:58.539Z,98490.16
2023-05-25T01:34:28.546Z,98488.78
2023-05-25T01:36:56.843Z,98483.03
2023-05-25T01:39:24.335Z,98485.69
2023-05-25T01:41:52.035Z,98484.78
2023-05-25T01:44:19.734Z,98487.44
2023-05-25T01:46:51.596Z,98485.81
2023-05-25T01:49:37.709Z,98500.09
2023-05-25T01:52:23.110Z,98491.88
2023-05-25T01:54:55.438Z,98494.41
2023-05-25T01:57:26.614Z,98495.41
2023-05-25T02:00:00.421Z,98491.94
2023-05-25T02:02:29.148Z,98494.97
2023-05-25T02:04:57.619Z,98493.13
2023-05-25T02:07:25.472Z,98485.56
2023-05-25T02:09:52.962Z,98494.53
2023-05-25T02:12:20.614Z,98498.59
2023-05-25T02:14:48.994Z,98492.81
2023-05-25T02:17:18.040Z,98495.84
2023-05-25T02:19:46.768Z,98500.97
2023-05-25T02:22:14.525Z,98502.53
2023-05-25T02:24:42.304Z,98501.91
2023-05-25T02:27:12.941Z,98505.94
2023-05-25T02:29:41.400Z,98510.59
2023-05-25T02:32:08.919Z,98515.47
2023-05-25T02:34:36.502Z,98518.69
2023-05-25T02:37:04.316Z,98510.75
2023-05-25T02:39:31.815Z,98504.00
2023-05-25T02:42:01.683Z,98509.94
2023-05-25T02:44:29.318Z,98510.75
2023-05-25T02:46:57.015Z,98507.28
2023-05-25T02:49:24.525Z,98510.31
2023-05-25T02:51:52.031Z,98515.63
2023-05-25T02:54:19.597Z,98515.63
2023-05-25T02:56:47.274Z,98518.06
2023-05-25T02:59:17.312Z,98515.25
2023-05-25T03:01:46.456Z,98527.47
2023-05-25T03:04:14.240Z,98528.72
2023-05-25T03:06:42.115Z,98535.69
2023-05-25T03:09:13.877Z,98525.09
2023-05-25T03:11:41.899Z,98534.47
2023-05-25T03:14:13.431Z,98539.66
2023-05-25T03:16:43.771Z,98534.84
2023-05-25T03:19:12.378Z,98544.59
2023-05-25T03:21:39.906Z,98534.56
2023-05-25T03:24:07.786Z,98534.72
2023-05-25T03:26:35.348Z,98533.03
2023-05-25T03:29:07.132Z,98530.56
2023-05-25T03:31:34.976Z,98539.09
2023-05-25T03:34:04.216Z,98544.78
2023-05-25T03:36:34.022Z,98540.16
2023-05-25T03:39:01.550Z,98547.38
2023-05-25T03:41:29.742Z,98539.84
2023-05-25T03:43:57.913Z,98547.19
2023-05-25T03:46:25.683Z,98550.19
2023-05-25T03:48:53.222Z,98558.69
2023-05-25T03:51:21.062Z,98557.78
2023-05-25T03:53:48.694Z,98558.00
2023-05-25T03:56:16.320Z,98559.47
2023-05-25T03:58:43.874Z,98553.41
2023-05-25T04:01:12.650Z,98554.59
2023-05-25T04:03:40.798Z,98550.91
2023-05-25T04:06:08.936Z,98550.06
2023-05-25T04:08:36.356Z,98559.72
2023-05-25T04:11:05.546Z,98561.22
2023-05-25T04:13:36.029Z,98564.19
2023-05-25T04:16:06.482Z,98566.13
2023-05-25T04:18:34.249Z,98568.53
2023-05-25T04:21:01.745Z,98570.03
2023-05-25T04:23:29.410Z,98567.81
2023-05-25T04:25:57.739Z,98573.03
2023-05-25T04:28:25.288Z,98570.34
2023-05-25T04:31:13.745Z,98577.25
2023-05-25T04:33:50.260Z,98568.25
2023-05-25T04:36:43.347Z,98568.69
2023-05-25T04:39:13.072Z,98564.47
2023-05-25T04:41:46.901Z,98570.88
2023-05-25T04:44:14.777Z,98564.84
2023-05-25T04:46:46.638Z,98565.28
2023-05-25T04:49:21.644Z,98569.72
2023-05-25T04:51:49.214Z,98570.47
2023-05-25T04:54:16.856Z,98572.03
2023-05-25T04:56:44.669Z,98570.88
2023-05-25T04:59:12.214Z,98575.38
2023-05-25T05:01:41.335Z,98573.34
2023-05-25T05:04:12.195Z,98579.41
2023-05-25T05:06:39.870Z,98580.13
2023-05-25T05:09:09.077Z,98577.28
2023-05-25T05:11:36.632Z,98578.41
2023-05-25T05:14:06.315Z,98575.94
2023-05-25T05:16:35.522Z,98568.66
2023-05-25T05:19:04.219Z,98571.69
2023-05-25T05:21:32.623Z,98573.34
2023-05-25T05:24:05.614Z,98574.72
2023-05-25T05:26:41.276Z,98578.00
2023-05-25T05:29:18.110Z,98575.81
2023-05-25T05:31:46.943Z,98577.41
2023-05-25T05:34:14.543Z,98572.81
2023-05-25T05:36:52.760Z,98573.91
2023-05-25T05:39:25.243Z,98570.00
2023-05-25T05:41:53.074Z,98572.69
2023-05-25T05:44:21.635Z,98567.22
2023-05-25T05:46:49.330Z,98559.88
2023-05-25T05:49:17.238Z,98566.41
2023-05-25T05:51:44.954Z,98568.00
2023-05-25T05:54:12.584Z,98572.22
2023-05-25T05:56:40.276Z,98566.91
2023-05-25T05:59:08.566Z,98572.88
2023-05-25T06:01:36.798Z,98570.81
2023-05-25T06:04:08.456Z,98569.88
2023-05-25T06:06:37.835Z,98565.41
2023-05-25T06:09:07.422Z,98566.38
2023-05-25T06:11:37.691Z,98574.19
2023-05-25T06:14:05.666Z,98571.00
2023-05-25T06:16:33.830Z,98578.13
2023-05-25T06:19:01.558Z,98580.91
2023-05-25T06:21:29.206Z,98575.53
2023-05-25T06:23:59.686Z,98577.63
2023-05-25T06:26:27.475Z,98576.75
2023-05-25T06:28:57.676Z,98580.63
2023-05-25T06:31:25.654Z,98573.75
2023-05-25T06:33:53.195Z,98571.78
2023-05-25T06:36:21.973Z,98578.94
2023-05-25T06:38:50.236Z,98578.72
2023-05-25T06:41:19.919Z,98579.22
2023-05-25T06:43:47.421Z,98579.97
2023-05-25T06:46:23.079Z,98582.16
2023-05-25T06:48:51.543Z,98576.28
2023-05-25T06:51:19.682Z,98574.63
2023-05-25T06:53:47.243Z,98585.94
2023-05-25T06:56:14.745Z,98591.72
2023-05-25T06:58:42.305Z,98582.31
2023-05-25T07:01:09.881Z,98578.13
2023-05-25T07:03:38.765Z,98582.31
2023-05-25T07:06:07.455Z,98580.91
2023-05-25T07:08:34.974Z,98584.56
2023-05-25T07:11:02.940Z,98586.66
2023-05-25T07:13:30.397Z,98582.47
2023-05-25T07:15:57.949Z,98589.59
2023-05-25T07:18:26.518Z,98581.94
2023-05-25T07:20:54.011Z,98588.72
2023-05-25T07:23:21.713Z,98582.91
2023-05-25T07:25:49.901Z,98589.03
2023-05-25T07:28:17.409Z,98599.41
2023-05-25T07:30:44.867Z,98601.44
2023-05-25T07:33:12.427Z,98594.69
2023-05-25T07:35:40.072Z,98591.97
2023-05-25T07:38:07.643Z,98591.47
2023-05-25T07:40:35.170Z,98593.06
2023-05-25T07:43:02.804Z,98591.81
2023-05-25T07:45:30.238Z,98593.50
2023-05-25T07:47:57.863Z,98593.75
2023-05-25T07:50:25.452Z,98597.97
2023-05-25T07:52:52.944Z,98599.91
2023-05-25T07:55:20.636Z,98604.84
2023-05-25T07:57:48.173Z,98609.19
2023-05-25T08:00:16.113Z,98599.06
2023-05-25T08:03:44.304Z,98609.09
2023-05-25T08:06:16.420Z,98605.47
2023-05-25T08:08:47.233Z,98605.56
2023-05-25T08:11:16.686Z,98612.75
2023-05-25T08:13:44.222Z,98610.16
2023-05-25T08:16:11.821Z,98611.72
2023-05-25T08:18:39.451Z,98602.78
2023-05-25T08:21:06.962Z,98609.06
2023-05-25T08:23:34.431Z,98608.13
2023-05-25T08:26:05.925Z,98615.88
2023-05-25T08:28:39.310Z,98611.50
2023-05-25T08:31:06.784Z,98606.72
2023-05-25T08:33:34.504Z,98614.97
2023-05-25T08:36:02.032Z,98614.16
2023-05-25T08:38:29.542Z,98614.19
2023-05-25T08:41:06.049Z,98613.75
2023-05-25T08:43:34.608Z,98616.34
2023-05-25T08:46:07.011Z,98618.09
2023-05-25T08:48:41.807Z,98618.09
2023-05-25T08:51:13.598Z,98619.13
2023-05-25T08:53:43.622Z,98616.88
2023-05-25T08:56:18.543Z,98623.59
2023-05-25T08:58:53.964Z,98619.88
2023-05-25T09:01:22.937Z,98613.13
2023-05-25T09:03:51.125Z,98617.81
2023-05-25T09:06:19.287Z,98625.25
2023-05-25T09:08:46.886Z,98622.03
2023-05-25T09:11:17.381Z,98623.94
2023-05-25T09:13:51.026Z,98627.06
2023-05-25T09:16:19.347Z,98633.72
2023-05-25T09:18:47.066Z,98638.22
2023-05-25T09:21:14.559Z,98630.38
2023-05-25T09:23:42.640Z,98628.25
2023-05-25T09:26:10.234Z,98619.25
2023-05-25T09:28:46.835Z,98630.22
2023-05-25T09:31:17.194Z,98625.75
2023-05-25T09:33:46.508Z,98633.16
2023-05-25T09:36:16.783Z,98633.81
2023-05-25T09:38:44.789Z,98640.72
2023-05-25T09:41:12.556Z,98639.72
2023-05-25T09:43:44.953Z,98638.47
2023-05-25T09:46:22.272Z,98649.97
2023-05-25T09:48:51.624Z,98649.91
2023-05-25T09:51:19.385Z,98646.53
2023-05-25T09:53:47.618Z,98644.06
2023-05-25T09:56:15.178Z,98640.72
2023-05-25T09:58:42.672Z,98649.34
2023-05-25T10:01:10.225Z,98646.75
2023-05-25T10:03:59.508Z,98646.38
2023-05-25T10:06:33.688Z,98649.44
2023-05-25T10:09:01.705Z,98642.91
2023-05-25T10:11:29.564Z,98642.38
2023-05-25T10:14:04.133Z,98650.47
2023-05-25T10:16:34.523Z,98655.41
2023-05-25T10:19:10.357Z,98647.75
2023-05-25T10:21:39.777Z,98645.31
2023-05-25T10:24:15.146Z,98645.63
2023-05-25T10:26:50.367Z,98645.09
2023-05-25T10:29:19.178Z,98636.72
2023-05-25T10:31:48.149Z,98646.94
2023-05-25T10:34:17.273Z,98639.59
2023-05-25T10:36:45.772Z,98642.88
2023-05-25T10:39:14.064Z,98638.75
2023-05-25T10:41:43.873Z,98637.44
2023-05-25T10:44:12.462Z,98639.56
2023-05-25T10:46:40.984Z,98636.34
2023-05-25T10:49:08.465Z,98640.72
2023-05-25T10:51:40.907Z,98637.25
2023-05-25T10:54:08.537Z,98630.75
2023-05-25T10:56:36.173Z,98629.41
2023-05-25T10:59:03.937Z,98626.34
2023-05-25T11:01:33.827Z,98630.75
2023-05-25T11:04:10.707Z,98626.34
2023-05-25T11:06:40.400Z,98629.31
2023-05-25T11:09:24.829Z,98624.53
2023-05-25T11:11:53.225Z,98618.56
2023-05-25T11:14:21.740Z,98615.91
2023-05-25T11:17:10.864Z,98616.94
2023-05-25T11:19:54.423Z,98605.03
2023-05-25T11:22:23.828Z,98601.22
2023-05-25T11:24:53.264Z,98610.16
2023-05-25T11:27:25.283Z,98607.34
2023-05-25T11:29:54.133Z,98619.41
2023-05-25T11:32:22.826Z,98611.22
2023-05-25T11:34:54.943Z,98615.84
2023-05-25T11:37:28.906Z,98610.81
2023-05-25T11:39:56.977Z,98601.97
2023-05-25T11:42:25.060Z,98609.91
2023-05-25T11:44:53.720Z,98605.81
2023-05-25T11:47:23.724Z,98612.28
2023-05-25T11:49:51.532Z,98608.56
2023-05-25T11:52:22.340Z,98604.72
2023-05-25T11:54:49.790Z,98611.28
2023-05-25T11:57:26.368Z,98612.91
2023-05-25T11:59:55.700Z,98602.56
2023-05-25T12:02:24.130Z,98608.81
2023-05-25T12:04:57.219Z,98603.94
2023-05-25T12:07:26.604Z,98601.97
2023-05-25T12:10:08.418Z,98600.91
2023-05-25T12:12:47.188Z,98600.47
2023-05-25T12:15:21.875Z,98599.34
2023-05-25T12:17:50.768Z,98596.91
2023-05-25T12:20:19.187Z,98593.94
2023-05-25T12:22:48.030Z,98593.91
2023-05-25T12:25:20.074Z,98587.69
2023-05-25T12:27:47.658Z,98588.00
2023-05-25T12:30:15.235Z,98579.84
2023-05-25T12:33:05.082Z,98586.38
2023-05-25T12:35:49.959Z,98583.91
2023-05-25T12:38:19.968Z,98578.06
2023-05-25T12:40:47.879Z,98574.34
2023-05-25T12:43:17.076Z,98576.88
2023-05-25T12:45:45.132Z,98570.31
2023-05-25T12:48:12.831Z,98561.03
2023-05-25T12:50:57.377Z,98566.94
2023-05-25T12:53:25.474Z,98571.44
2023-05-25T12:56:05.609Z,98575.50
2023-05-25T12:58:33.281Z,98566.88
2023-05-25T13:01:00.932Z,98562.56
2023-05-25T13:03:28.473Z,98572.25
2023-05-25T13:06:01.449Z,98564.91
2023-05-25T13:08:29.744Z,98558.38
2023-05-25T13:10:57.352Z,98560.88
2023-05-25T13:13:24.917Z,98560.34
2023-05-25T13:15:52.454Z,98562.97
2023-05-25T13:18:19.961Z,98554.22
2023-05-25T13:20:49.978Z,98547.91
2023-05-25T13:23:18.680Z,98557.78
2023-05-25T13:25:47.149Z,98560.31
2023-05-25T13:28:14.706Z,98555.50
2023-05-25T13:30:42.999Z,98553.72
2023-05-25T13:33:11.152Z,98543.66
2023-05-25T13:35:46.034Z,98535.53
2023-05-25T13:38:15.869Z,98535.19
2023-05-25T13:40:45.616Z,98544.94
2023-05-25T13:43:13.448Z,98538.59
2023-05-25T13:45:41.065Z,98529.41
2023-05-25T13:48:08.727Z,98538.75
2023-05-25T13:50:36.310Z,98534.78
2023-05-25T13:53:03.892Z,98532.69
2023-05-25T13:55:31.453Z,98526.78
2023-05-25T13:57:59.113Z,98525.81
2023-05-25T14:00:27.690Z,98524.16
2023-05-25T14:02:55.316Z,98538.19
2023-05-25T14:05:23.043Z,98530.91
2023-05-25T14:07:50.818Z,98531.16
2023-05-25T14:10:19.028Z,98522.75
2023-05-25T14:12:46.658Z,98524.31
2023-05-25T14:15:14.364Z,98521.38
2023-05-25T14:17:42.101Z,98514.47
2023-05-25T14:20:10.525Z,98518.59
2023-05-25T14:22:38.104Z,98526.03
2023-05-25T14:25:06.231Z,98521.94
2023-05-25T14:27:33.749Z,98527.38
2023-05-25T14:30:01.241Z,98526.84
2023-05-25T14:32:28.854Z,98513.81
2023-05-25T14:34:56.395Z,98520.25
2023-05-25T14:37:23.992Z,98519.00
2023-05-25T14:39:51.602Z,98524.91
2023-05-25T14:42:19.213Z,98522.25
2023-05-25T14:44:46.922Z,98528.72
2023-05-25T14:47:14.469Z,98530.06
2023-05-25T14:49:42.020Z,98520.88
2023-05-25T14:52:09.632Z,98519.25
2023-05-25T14:54:37.349Z,98519.50
2023-05-25T14:57:05.207Z,98518.84
2023-05-25T14:59:32.690Z,98512.16
2023-05-25T15:02:00.286Z,98514.38
2023-05-25T15:04:30.040Z,98515.72
2023-05-25T15:06:58.662Z,98520.06
2023-05-25T15:09:26.201Z,98514.06
2023-05-25T15:11:53.740Z,98507.84
2023-05-25T15:14:21.302Z,98512.63
2023-05-25T15:16:48.810Z,98514.59
2023-05-25T15:19:17.675Z,98523.28
2023-05-25T15:21:45.737Z,98515.44
2023-05-25T15:24:16.801Z,98513.44
2023-05-25T15:26:44.339Z,98513.88
2023-05-25T15:29:11.864Z,98512.97
2023-05-25T15:31:39.352Z,98515.09
2023-05-25T15:34:07.028Z,98510.59
2023-05-25T15:36:34.556Z,98514.84
2023-05-25T15:39:02.186Z,98515.72
2023-05-25T15:41:29.784Z,98510.59
2023-05-25T15:44:01.608Z,98507.34
2023-05-25T15:46:29.288Z,98506.28
2023-05-25T15:48:56.717Z,98500.53
2023-05-25T15:51:24.304Z,98496.97
2023-05-25T15:53:52.420Z,98488.34
2023-05-25T15:56:19.968Z,98484.53
2023-05-25T15:58:49.481Z,98487.50
2023-05-25T16:01:17.147Z,98485.03
2023-05-25T16:03:44.992Z,98483.47
2023-05-25T16:06:12.761Z,98480.78
2023-05-25T16:08:40.265Z,98480.22
2023-05-25T16:11:07.877Z,98475.88
2023-05-25T16:13:35.437Z,98475.31
2023-05-25T16:16:02.959Z,98474.25
2023-05-25T16:18:30.601Z,98475.91
2023-05-25T16:20:58.151Z,98477.53
2023-05-25T16:23:26.027Z,98476.69
2023-05-25T16:25:53.794Z,98476.72
2023-05-25T16:28:21.285Z,98474.00
2023-05-25T16:30:48.968Z,98470.56
2023-05-25T16:33:16.656Z,98477.56
2023-05-25T16:35:44.424Z,98487.31
2023-05-25T16:38:12.060Z,98480.31
2023-05-25T16:40:39.600Z,98483.25
2023-05-25T16:43:07.222Z,98485.06
2023-05-25T16:45:34.822Z,98476.38
2023-05-25T16:48:02.463Z,98470.47
2023-05-25T16:50:29.952Z,98477.03
2023-05-25T16:52:57.550Z,98472.16
2023-05-25T16:55:25.578Z,98471.34
2023-05-25T16:57:53.125Z,98470.56
2023-05-25T17:00:21.010Z,98469.47
2023-05-25T17:02:48.713Z,98467.84
2023-05-25T17:05:16.397Z,98467.81
2023-05-25T17:07:43.980Z,98470.25
2023-05-25T17:10:11.774Z,98464.31
2023-05-25T17:12:39.377Z,98473.44
2023-05-25T17:15:07.523Z,98473.16
2023-05-25T17:17:35.102Z,98469.09
2023-05-25T17:20:03.870Z,98470.47
2023-05-25T17:22:31.417Z,98469.63
2023-05-25T17:24:59.020Z,98480.41
2023-05-25T17:27:26.560Z,98480.97
2023-05-25T17:29:54.152Z,98479.56
2023-05-25T17:32:22.179Z,98475.19
2023-05-25T17:34:49.649Z,98478.09
2023-05-25T17:37:18.530Z,98478.34
2023-05-25T17:39:46.753Z,98475.66
2023-05-25T17:42:14.386Z,98476.69
2023-05-25T17:44:42.681Z,98482.56
2023-05-25T17:47:11.385Z,98476.00
2023-05-25T17:49:39.051Z,98473.19
2023-05-25T17:52:07.710Z,98470.44
2023-05-25T17:54:35.698Z,98472.63
2023-05-25T17:57:03.699Z,98479.06
2023-05-25T17:59:31.324Z,98477.84
2023-05-25T18:01:58.860Z,98480.22
2023-05-25T18:04:26.539Z,98476.88
2023-05-25T18:06:54.115Z,98478.22
2023-05-25T18:09:21.811Z,98479.72
2023-05-25T18:11:49.313Z,98480.44
2023-05-25T18:14:16.836Z,98486.22
2023-05-25T18:16:45.120Z,98484.69
2023-05-25T18:19:15.344Z,98486.00
2023-05-25T18:21:42.959Z,98483.94
2023-05-25T18:24:10.648Z,98485.47
2023-05-25T18:26:38.221Z,98486.91
2023-05-25T18:29:05.787Z,98490.53
2023-05-25T18:31:33.762Z,98495.03
2023-05-25T18:34:01.878Z,98492.94
2023-05-25T18:36:29.577Z,98493.69
2023-05-25T18:38:57.154Z,98493.38
2023-05-25T18:41:27.014Z,98495.41
2023-05-25T18:43:55.094Z,98498.75
2023-05-25T18:46:23.981Z,98499.31
2023-05-25T18:48:51.545Z,98499.66
2023-05-25T18:51:23.140Z,98501.34
2023-05-25T18:53:50.766Z,98508.28
2023-05-25T18:56:18.336Z,98508.34
2023-05-25T18:58:45.834Z,98511.41
2023-05-25T19:01:13.377Z,98512.97
2023-05-25T19:03:41.164Z,98519.88
2023-05-25T19:06:08.882Z,98520.84
2023-05-25T19:08:36.409Z,98519.13
2023-05-25T19:11:04.042Z,98526.75
2023-05-25T19:13:31.579Z,98531.31
2023-05-25T19:15:59.345Z,98524.75
2023-05-25T19:18:26.895Z,98534.84
2023-05-25T19:20:54.583Z,98538.31
2023-05-25T19:23:22.099Z,98531.47
2023-05-25T19:25:49.662Z,98535.66
2023-05-25T19:28:17.206Z,98533.94
2023-05-25T19:30:44.912Z,98538.63
2023-05-25T19:33:12.510Z,98542.00
2023-05-25T19:35:41.661Z,98549.94
2023-05-25T19:38:09.199Z,98550.97
2023-05-25T19:40:36.740Z,98550.31
2023-05-25T19:43:04.302Z,98554.97
2023-05-25T19:45:31.918Z,98551.50
2023-05-25T19:47:59.553Z,98549.75
2023-05-25T19:50:30.676Z,98554.50
2023-05-25T19:52:58.799Z,98558.81
2023-05-25T19:55:27.229Z,98560.34
2023-05-25T19:57:55.138Z,98563.59
2023-05-25T20:00:26.508Z,98562.56
2023-05-25T20:02:54.842Z,98568.25
2023-05-25T20:05:22.627Z,98568.72
2023-05-25T20:07:52.353Z,98576.19
2023-05-25T20:10:20.207Z,98566.50
2023-05-25T20:12:47.894Z,98574.66
2023-05-25T20:15:15.821Z,98579.31
2023-05-25T20:17:43.512Z,98579.53
2023-05-25T20:20:11.468Z,98584.78
2023-05-25T20:22:39.051Z,98590.59
2023-05-25T20:25:07.028Z,98590.34
2023-05-25T20:27:34.692Z,98585.22
2023-05-25T20:30:02.404Z,98594.19
2023-05-25T20:32:30.174Z,98594.03
2023-05-25T20:34:57.689Z,98586.44
2023-05-25T20:37:26.807Z,98598.19
2023-05-25T20:39:54.329Z,98591.28
2023-05-25T20:42:21.952Z,98589.88
2023-05-25T20:44:49.520Z,98589.72
2023-05-25T20:47:17.114Z,98592.88
2023-05-25T20:49:44.659Z,98592.28
2023-05-25T20:52:12.376Z,98588.66
2023-05-25T20:54:44.732Z,98593.22
2023-05-25T20:57:12.565Z,98591.94
2023-05-25T20:59:40.248Z,98596.34
2023-05-25T21:02:08.208Z,98599.47
2023-05-25T21:04:35.942Z,98598.88
2023-05-25T21:07:03.504Z,98603.63
2023-05-25T21:09:31.133Z,98606.38
2023-05-25T21:11:59.010Z,98616.13
2023-05-25T21:14:26.487Z,98616.56
2023-05-25T21:16:54.066Z,98613.31
2023-05-25T21:19:21.574Z,98623.66
2023-05-25T21:21:49.139Z,98626.53
2023-05-25T21:24:16.628Z,98629.00
2023-05-25T21:26:44.132Z,98627.44
2023-05-25T21:29:11.658Z,98631.75
2023-05-25T21:31:39.326Z,98637.94
2023-05-25T21:34:07.182Z,98634.41
2023-05-25T21:36:34.751Z,98633.25
2023-05-25T21:39:02.222Z,98628.34
2023-05-25T21:41:29.732Z,98631.25
2023-05-25T21:43:57.234Z,98632.94
2023-05-25T21:46:25.407Z,98641.41
2023-05-25T21:48:52.947Z,98641.41
2023-05-25T21:51:20.688Z,98646.38
2023-05-25T21:53:48.238Z,98641.03
2023-05-25T21:56:15.839Z,98644.53
2023-05-25T21:58:43.403Z,98645.56
2023-05-25T22:01:11.172Z,98644.56
2023-05-25T22:03:38.734Z,98645.25
2023-05-25T22:06:06.561Z,98655.34
2023-05-25T22:08:34.011Z,98651.94
2023-05-25T22:11:01.598Z,98653.41
2023-05-25T22:13:29.167Z,98658.53
2023-05-25T22:15:56.671Z,98656.91
2023-05-25T22:18:24.264Z,98656.91
2023-05-25T22:20:51.953Z,98656.28
2023-05-25T22:23:19.578Z,98661.88
2023-05-25T22:25:47.252Z,98664.75
2023-05-25T22:28:15.139Z,98670.53
2023-05-25T22:30:42.737Z,98675.50
2023-05-25T22:33:10.454Z,98673.88
2023-05-25T22:35:38.007Z,98670.81
2023-05-25T22:38:05.569Z,98669.03
2023-05-25T22:40:33.108Z,98680.38
2023-05-25T22:43:00.800Z,98673.19
2023-05-25T22:45:28.284Z,98681.41
2023-05-25T22:47:55.764Z,98675.03
2023-05-25T22:50:23.341Z,98683.25
2023-05-25T22:52:50.932Z,98683.50
2023-05-25T22:55:18.530Z,98685.31
2023-05-25T22:57:46.099Z,98679.97
2023-05-25T23:00:13.835Z,98687.41
2023-05-25T23:02:41.430Z,98677.78
2023-05-25T23:05:09.996Z,98676.78
2023-05-25T23:07:37.542Z,98678.59
2023-05-25T23:10:05.622Z,98677.63
2023-05-25T23:12:33.169Z,98676.78
2023-05-25T23:15:01.486Z,98676.22
2023-05-25T23:17:29.129Z,98675.97
2023-05-25T23:19:56.789Z,98679.25
2023-05-25T23:22:24.470Z,98682.97
2023-05-25T23:24:52.021Z,98684.22
2023-05-25T23:27:19.661Z,98674.78
2023-05-25T23:29:47.169Z,98680.94
2023-05-25T23:32:14.808Z,98681.38
2023-05-25T23:34:42.303Z,98672.97
2023-05-25T23:37:11.413Z,98666.00
2023-05-25T23:39:39.031Z,98667.63
2023-05-25T23:42:06.802Z,98673.03
2023-05-25T23:44:34.354Z,98675.50
2023-05-25T23:47:01.806Z,98669.97
2023-05-25T23:49:29.432Z,98672.50
2023-05-25T23:51:56.930Z,98673.50
2023-05-25T23:54:24.400Z,98675.78
2023-05-25T23:56:51.991Z,98674.97
2023-05-25T23:59:19.698Z,98678.88
